San Ygnacio, TX (78067)

6:15 PM CDT on March 28, 2015 (GMT -0500)
Zapata | | Change Station
CLOSE
Current Station
Airport
Location: Zapata,
Elevation: 423 ft
Nearby Weather Stations

Elev 423 ft 26.97 °N, 99.25 °W | Updated 20 minutes ago

Clear
Clear
85 °F
Feels Like 85 °F
N
14
Wind Variable Wind from SSE
Gusts 20 mph

Today
High -- | Low -- °F
--% Chance of Precip.
Yesterday
High -- | Low -- °F
Precip. -- in
7:32 AM 7:52 PM
Waxing Gibbous, 66% visible
Pressure 30.01 in
Visibility 10.0 miles
Clouds Clear
Dew Point 37 °F
Humidity 18%
Rainfall 0.00 in
Snow Depth Not available.
UV 2 out of 12
Pollen 11.20 out of 12
Air Quality Not available.
Flu Activity Not available.
METAR KAPY 282255Z AUTO 16012G17KT 10SM CLR 29/02 A3001 RMK AO2 T02930028

More Conditions Fewer Conditions

Pressure 30.01 in
Visibility 10.0 miles
Clouds Clear
Dew Point 37 °F
Humidity 18%
Rainfall 0.00 in
Snow Depth Not available.
UV 2 out of 12
Pollen 11.20 out of 12
Air Quality Not available.
Flu Activity Not available.
METAR KAPY 282255Z AUTO 16012G17KT 10SM CLR 29/02 A3001 RMK AO2 T02930028

More Conditions Fewer Conditions

10-Day Weather Forecast

Almanac

Astronomy

Mar. 28, 2015 Rise Set
Actual Time
Civil Twilight
Nautical Twilight
Astronomical Twilight
Moon
Length of Visible Light
Length of Day
Tomorrow will be .
, % of the Moon is Illuminated

Today's Extremes

State Highs State Lows

Community

WunderPhotos

Upload Photos

1,809,124 photos uploaded!

WunderBlogs® & News

Nearby

Air Quality

  Air Quality AQ Index Pollutant
Not available.

Snow Depth

Station Depth Elevation

Earthquake Activity

City Distance Mag. Time & Date
Minimum magnitude displayed is 2.5.

Coastal Water Temperatures

Place Temperature

Stations

Nearby Weather Stations

Station Location Temp. Windchill Dew Point Humidity Wind Precip. Elev Updated Type